Time;durP1;ratioP1;P1;durP2;ratioP2;P2;SDS_P1;SDS_P2;PMS_P1;PMS_P2;Temp;Humidity;BMP_temperature;BMP_pressure;BME280_temperature;BME280_humidity;BME280_pressure;Samples;Min_cycle;Max_cycle;Signal;HPM_P1;HPM_P2
2024/03/21 00:02:15;;;;;;;12.32;6.38;;;;;;;3.01;100.00;100581.00;5068494;28;20021;-81
2024/03/21 00:04:41;;;;;;;9.82;5.95;;;;;;;3.20;100.00;100593.94;5068655;28;20039;-80
2024/03/21 00:07:06;;;;;;;9.32;5.43;;;;;;;3.16;100.00;100582.06;5069015;28;20062;-81
2024/03/21 00:09:33;;;;;;;12.35;6.20;;;;;;;3.46;97.71;100571.97;5068212;28;20085;-80
2024/03/21 00:11:59;;;;;;;12.30;6.32;;;;;;;3.61;95.72;100573.00;5068223;28;20035;-81
2024/03/21 00:14:25;;;;;;;11.00;6.63;;;;;;;3.13;100.00;100589.47;5066114;28;20029;-81
2024/03/21 00:16:51;;;;;;;11.80;6.22;;;;;;;2.77;100.00;100560.63;5068768;28;20032;-81
2024/03/21 00:19:18;;;;;;;12.82;7.50;;;;;;;2.31;100.00;100567.88;5066902;28;20505;-81
2024/03/21 00:21:45;;;;;;;12.30;6.80;;;;;;;2.74;100.00;100524.06;5067017;28;20119;-80
2024/03/21 00:24:10;;;;;;;11.05;6.18;;;;;;;2.90;100.00;100565.47;5066733;28;20037;-81
2024/03/21 00:26:36;;;;;;;12.77;7.18;;;;;;;3.08;100.00;100566.22;5067114;28;20055;-81
2024/03/21 00:29:04;;;;;;;14.07;7.13;;;;;;;3.29;100.00;100549.16;5075270;28;20708;-80
2024/03/21 00:31:33;;;;;;;15.60;8.77;;;;;;;3.13;100.00;100561.31;5088204;28;20024;-81
2024/03/21 00:34:00;;;;;;;12.73;7.30;;;;;;;2.88;100.00;100554.25;5088325;28;20040;-81
2024/03/21 00:36:26;;;;;;;13.73;7.97;;;;;;;3.33;100.00;100572.44;5088440;28;20061;-81
2024/03/21 00:38:52;;;;;;;13.95;8.35;;;;;;;3.48;100.00;100556.00;5088198;28;20031;-81
2024/03/21 00:41:19;;;;;;;14.48;7.68;;;;;;;3.21;100.00;100563.97;5070001;28;20020;-81
2024/03/21 00:43:45;;;;;;;13.05;7.30;;;;;;;3.19;100.00;100547.50;5087748;28;20412;-81
2024/03/21 00:46:10;;;;;;;12.77;6.97;;;;;;;3.42;100.00;100542.47;5069836;28;20024;-80
2024/03/21 00:48:35;;;;;;;14.50;7.68;;;;;;;3.71;100.00;100548.28;5069696;28;20039;-81
2024/03/21 00:51:01;;;;;;;13.25;6.72;;;;;;;3.78;98.60;100549.28;5088503;28;20025;-80
2024/03/21 00:53:26;;;;;;;20.48;10.75;;;;;;;3.78;97.34;100549.28;5087105;28;20035;-80
2024/03/21 00:55:52;;;;;;;19.52;12.00;;;;;;;3.67;96.78;100523.22;5088024;28;20024;-80
2024/03/21 00:58:17;;;;;;;18.27;11.15;;;;;;;3.46;100.00;100555.34;5087678;28;20028;-80
2024/03/21 01:00:42;;;;;;;17.13;10.30;;;;;;;3.67;100.00;100560.16;5069581;28;20046;-80
2024/03/21 01:03:12;;;;;;;15.77;9.27;;;;;;;2.98;100.00;100536.50;5069202;28;20043;-81
2024/03/21 01:05:38;;;;;;;15.38;8.43;;;;;;;2.80;100.00;100532.16;5069660;28;20032;-79
2024/03/21 01:08:03;;;;;;;16.88;7.82;;;;;;;3.29;100.00;100550.00;5069520;28;20401;-81
2024/03/21 01:10:29;;;;;;;14.98;8.25;;;;;;;3.74;100.00;100548.81;5069461;28;20038;-80
2024/03/21 01:12:54;;;;;;;12.90;7.70;;;;;;;3.03;100.00;100531.63;5069367;28;20409;-80
2024/03/21 01:15:20;;;;;;;16.40;9.13;;;;;;;3.28;100.00;100523.81;5087536;28;20477;-80
2024/03/21 01:17:46;;;;;;;14.68;8.77;;;;;;;3.79;100.00;100556.22;5069176;28;20032;-81
2024/03/21 01:20:11;;;;;;;16.70;10.15;;;;;;;3.66;100.00;100542.66;5087320;28;20117;-81
2024/03/21 01:22:37;;;;;;;17.27;9.40;;;;;;;3.44;100.00;100525.66;5087339;28;20032;-81
2024/03/21 01:25:04;;;;;;;18.63;10.20;;;;;;;3.50;100.00;100502.09;5068757;28;20032;-80
2024/03/21 01:27:30;;;;;;;14.20;6.95;;;;;;;3.34;100.00;100505.53;5069338;28;20825;-81
2024/03/21 01:29:56;;;;;;;13.30;7.05;;;;;;;3.33;100.00;100510.94;5087152;28;20048;-80
2024/03/21 01:32:21;;;;;;;11.65;7.00;;;;;;;3.24;100.00;100533.00;5087394;28;20596;-80
2024/03/21 01:34:47;;;;;;;12.18;7.82;;;;;;;3.32;100.00;100538.31;5068910;28;20036;-80
2024/03/21 01:37:13;;;;;;;14.93;6.72;;;;;;;3.08;100.00;100524.03;5086872;28;20032;-80
2024/03/21 01:39:38;;;;;;;13.43;7.90;;;;;;;3.31;100.00;100494.47;5087225;28;20382;-80
2024/03/21 01:42:04;;;;;;;14.45;7.28;;;;;;;3.82;99.13;100513.66;5068954;28;20047;-79
2024/03/21 01:44:29;;;;;;;11.52;6.40;;;;;;;3.96;95.43;100518.31;5068993;28;20036;-80
2024/03/21 01:46:55;;;;;;;14.10;7.00;;;;;;;3.92;94.66;100530.16;5069022;28;20115;-80
2024/03/21 01:49:20;;;;;;;14.85;6.70;;;;;;;3.13;98.89;100502.50;5068472;28;20550;-80
2024/03/21 01:51:47;;;;;;;16.00;7.38;;;;;;;3.20;100.00;100519.31;5068869;28;20028;-80
2024/03/21 01:54:17;;;;;;;19.58;8.90;;;;;;;2.87;100.00;100484.94;5068462;28;20028;-81
2024/03/21 01:56:43;;;;;;;22.10;10.73;;;;;;;3.14;100.00;100497.06;5086875;28;20021;-79
2024/03/21 01:59:08;;;;;;;15.48;8.00;;;;;;;2.91;100.00;100494.19;5084427;28;20024;-80
2024/03/21 02:01:36;;;;;;;12.90;7.38;;;;;;;3.18;100.00;100510.75;5086841;28;20074;-80
2024/03/21 02:04:03;;;;;;;14.43;7.70;;;;;;;2.76;100.00;100499.22;5086443;28;20424;-80
2024/03/21 02:06:31;;;;;;;13.20;7.40;;;;;;;3.14;100.00;100518.13;5087009;28;20496;-81
2024/03/21 02:08:58;;;;;;;12.70;7.20;;;;;;;3.08;100.00;100489.78;5068757;28;20032;-81
2024/03/21 02:11:24;;;;;;;12.93;6.22;;;;;;;3.01;100.00;100505.41;5086225;28;20895;-81
2024/03/21 02:13:54;;;;;;;11.23;6.45;;;;;;;2.68;100.00;100509.72;5085540;28;20028;-80
2024/03/21 02:16:21;;;;;;;12.77;6.05;;;;;;;3.19;100.00;100510.59;5086809;28;20020;-80
2024/03/21 02:18:46;;;;;;;9.77;5.85;;;;;;;2.83;100.00;100467.00;5086815;28;20035;-81
2024/03/21 02:23:56;;;;;;;11.18;5.68;;;;;;;2.80;100.00;100497.94;5086376;28;20039;-81
2024/03/21 02:26:23;;;;;;;12.40;5.65;;;;;;;2.93;100.00;100509.84;5086947;28;20024;-80
2024/03/21 02:28:52;;;;;;;11.82;6.18;;;;;;;2.76;100.00;100474.72;5086657;28;20074;-82
2024/03/21 02:31:22;;;;;;;10.27;5.28;;;;;;;2.32;100.00;100456.38;5086616;28;20504;-80
2024/03/21 02:33:48;;;;;;;10.90;5.68;;;;;;;2.67;100.00;100494.06;5086385;28;20028;-80
2024/03/21 02:36:14;;;;;;;12.18;6.18;;;;;;;2.87;100.00;100481.50;5086539;28;20183;-81
2024/03/21 02:38:40;;;;;;;8.73;5.40;;;;;;;3.13;100.00;100508.59;5088802;28;20123;-80
2024/03/21 02:41:06;;;;;;;11.57;6.25;;;;;;;3.21;98.42;100502.53;5090190;28;20111;-80
2024/03/21 02:43:31;;;;;;;11.02;6.03;;;;;;;3.08;97.83;100479.25;5090139;28;20060;-80
2024/03/21 02:45:57;;;;;;;12.18;5.93;;;;;;;3.14;97.96;100489.16;5090154;28;20040;-81
2024/03/21 02:48:22;;;;;;;11.95;6.68;;;;;;;2.95;100.00;100486.78;5071899;28;20040;-80
2024/03/21 02:50:48;;;;;;;11.68;6.30;;;;;;;3.09;100.00;100504.63;5090603;28;20040;-80
2024/03/21 02:53:13;;;;;;;16.30;12.60;;;;;;;2.97;100.00;100485.66;5089769;28;20113;-80
2024/03/21 02:55:38;;;;;;;18.50;13.40;;;;;;;2.77;100.00;100471.88;5090023;28;20028;-80
2024/03/21 02:58:04;;;;;;;12.55;7.07;;;;;;;3.05;99.28;100484.84;5071906;28;20024;-80
2024/03/21 03:00:29;;;;;;;9.27;5.57;;;;;;;2.67;100.00;100455.38;5071705;28;20739;-81
2024/03/21 03:02:55;;;;;;;12.07;6.30;;;;;;;2.92;99.77;100484.47;5089985;28;20028;-80
2024/03/21 03:05:20;;;;;;;11.30;5.65;;;;;;;2.96;98.72;100489.28;5090242;28;20032;-80
2024/03/21 03:07:46;;;;;;;9.93;5.00;;;;;;;3.04;100.00;100498.19;5071667;28;20055;-81
2024/03/21 03:10:13;;;;;;;8.52;4.95;;;;;;;2.87;95.47;100478.84;5071482;28;20032;-80
2024/03/21 03:12:38;;;;;;;9.85;5.15;;;;;;;2.98;96.69;100489.09;5089964;28;20104;-81
2024/03/21 03:15:05;;;;;;;10.18;5.45;;;;;;;2.73;98.01;100480.28;5089812;28;20061;-81
2024/03/21 03:17:30;;;;;;;9.85;6.05;;;;;;;2.65;97.64;100473.16;5089651;28;20129;-81
2024/03/21 03:19:55;;;;;;;14.10;6.75;;;;;;;2.67;98.30;100467.72;5071218;28;20093;-80
2024/03/21 03:22:21;;;;;;;11.25;5.32;;;;;;;2.73;99.07;100502.16;5071671;28;20039;-80
2024/03/21 03:24:46;;;;;;;9.65;5.35;;;;;;;2.54;99.59;100481.34;5071334;28;20483;-79
2024/03/21 03:27:12;;;;;;;11.88;5.55;;;;;;;2.60;99.90;100483.34;5071707;28;20026;-81
2024/03/21 03:29:37;;;;;;;13.18;6.50;;;;;;;2.40;100.00;100457.22;5071266;28;20112;-81
2024/03/21 03:32:03;;;;;;;10.40;4.82;;;;;;;2.54;100.00;100486.59;5089502;28;20028;-82
2024/03/21 03:37:13;;;;;;;10.32;5.53;;;;;;;2.37;98.63;100475.13;5089340;28;20170;-80
2024/03/21 03:39:38;;;;;;;11.52;5.15;;;;;;;2.37;100.00;100489.13;5070912;28;20130;-80
2024/03/21 03:42:04;;;;;;;11.40;5.43;;;;;;;2.27;100.00;100464.72;5089425;28;20038;-81
2024/03/21 03:44:29;;;;;;;8.73;4.38;;;;;;;2.33;99.39;100469.38;5089466;28;20046;-80
2024/03/21 03:46:55;;;;;;;9.93;5.05;;;;;;;2.38;98.02;100464.44;5071014;28;20035;-82
2024/03/21 03:49:20;;;;;;;8.90;4.88;;;;;;;2.48;98.12;100476.69;5089546;28;20039;-79
2024/03/21 03:51:46;;;;;;;9.80;5.05;;;;;;;2.37;98.26;100447.03;5071032;28;20027;-80
2024/03/21 03:54:12;;;;;;;10.55;5.28;;;;;;;2.44;97.69;100467.47;5088801;28;20468;-80
2024/03/21 03:56:37;;;;;;;12.82;7.25;;;;;;;2.39;96.66;100466.13;5070696;28;20020;-81
2024/03/21 03:59:02;;;;;;;14.02;6.88;;;;;;;2.38;97.23;100464.44;5070777;28;20036;-80
2024/03/21 04:01:28;;;;;;;13.55;6.47;;;;;;;2.22;99.29;100488.84;5070669;28;20028;-80
2024/03/21 04:03:53;;;;;;;10.98;5.15;;;;;;;2.29;99.96;100490.88;5088794;28;20035;-80
2024/03/21 04:06:19;;;;;;;8.50;4.60;;;;;;;2.07;99.82;100474.63;5070436;28;20028;-81
2024/03/21 04:08:45;;;;;;;8.02;4.10;;;;;;;2.19;99.72;100472.56;5088137;28;20033;-80
2024/03/21 04:11:15;;;;;;;10.13;4.70;;;;;;;2.29;96.75;100457.50;5070452;28;20051;-80
2024/03/21 04:13:40;;;;;;;10.50;5.07;;;;;;;2.11;95.16;100433.06;5088322;28;20031;-80
2024/03/21 04:16:12;;;;;;;12.20;5.00;;;;;;;2.23;96.26;100487.06;5088767;28;20476;-81
2024/03/21 04:18:37;;;;;;;9.82;4.60;;;;;;;2.19;96.81;100462.03;5070462;28;20509;-80
2024/03/21 04:21:03;;;;;;;8.23;4.63;;;;;;;2.14;97.24;100490.59;5070288;28;20118;-79
2024/03/21 04:23:28;;;;;;;9.82;4.85;;;;;;;2.06;97.30;100472.94;5088211;28;20747;-80
2024/03/21 04:25:54;;;;;;;10.20;5.30;;;;;;;2.00;96.59;100449.88;5070383;28;20031;-81
2024/03/21 04:28:19;;;;;;;11.43;5.47;;;;;;;2.11;97.55;100475.16;5069963;28;20020;-80
2024/03/21 04:30:45;;;;;;;11.52;6.53;;;;;;;2.16;97.15;100472.88;5070255;28;20031;-80
2024/03/21 04:33:10;;;;;;;9.90;5.63;;;;;;;2.37;96.46;100486.50;5069691;28;20028;-81
2024/03/21 04:35:35;;;;;;;11.70;5.60;;;;;;;2.09;96.34;100433.19;5087644;28;20634;-80
2024/03/21 04:38:01;;;;;;;8.73;4.60;;;;;;;2.21;96.37;100465.34;5069650;28;20040;-80
2024/03/21 04:40:27;;;;;;;9.02;4.88;;;;;;;2.41;96.00;100487.84;5087984;28;20607;-80
2024/03/21 04:42:52;;;;;;;15.05;8.80;;;;;;;2.27;97.55;100474.41;5088534;28;20031;-80
2024/03/21 04:45:20;;;;;;;22.38;10.45;;;;;;;2.41;97.15;100477.31;5069601;28;20113;-80
2024/03/21 04:47:46;;;;;;;21.67;11.52;;;;;;;2.69;94.21;100474.47;5087880;28;20398;-80
2024/03/21 04:50:11;;;;;;;24.90;14.85;;;;;;;2.33;95.85;100458.84;5087397;28;20098;-80
2024/03/21 04:52:37;;;;;;;19.88;11.45;;;;;;;2.80;93.65;100476.84;5087746;28;20050;-80
2024/03/21 04:55:03;;;;;;;14.40;7.97;;;;;;;2.74;93.22;100477.50;5087658;28;20020;-81
2024/03/21 04:57:28;;;;;;;11.43;6.53;;;;;;;2.52;94.07;100456.97;5087686;28;20540;-80
2024/03/21 04:59:57;;;;;;;11.68;6.00;;;;;;;2.80;94.13;100484.75;5069506;28;20170;-81
2024/03/21 05:02:22;;;;;;;8.85;4.60;;;;;;;2.88;92.42;100491.03;5068819;28;20036;-81
2024/03/21 05:04:48;;;;;;;13.50;6.13;;;;;;;3.08;92.52;100488.97;5087374;28;20039;-80
2024/03/21 05:07:14;;;;;;;9.93;4.40;;;;;;;3.05;92.81;100482.22;5087226;28;20886;-81
2024/03/21 05:09:39;;;;;;;15.68;7.55;;;;;;;2.63;95.10;100467.22;5087792;28;20104;-81
2024/03/21 05:12:06;;;;;;;9.57;5.10;;;;;;;2.48;100.00;100489.84;5087684;28;20085;-79
2024/03/21 05:14:34;;;;;;;11.95;6.07;;;;;;;2.42;100.00;100472.88;5098721;28;20067;-80
2024/03/21 05:17:00;;;;;;;;;;;;;;;2.51;100.00;100502.69;5087805;28;20031;-80
2024/03/21 05:19:26;;;;;;;11.30;5.18;;;;;;;2.67;99.91;100486.97;5064679;28;20562;-79
2024/03/21 05:21:51;;;;;;;12.30;6.68;;;;;;;2.77;100.00;100473.72;5098179;28;20055;-79
2024/03/21 05:24:17;;;;;;;21.02;11.35;;;;;;;2.72;100.00;100474.19;5068722;28;20040;-79
2024/03/21 05:26:42;;;;;;;36.75;19.52;;;;;;;2.91;99.11;100494.19;5087234;28;20032;-80
2024/03/21 05:29:07;;;;;;;39.05;20.20;;;;;;;2.82;99.57;100463.53;5065394;28;20048;-80
2024/03/21 05:31:33;;;;;;;24.67;13.82;;;;;;;3.11;100.00;100480.75;5066369;28;20020;-80
2024/03/21 05:34:00;;;;;;;21.15;11.25;;;;;;;3.35;96.83;100491.38;5066450;28;20115;-80
2024/03/21 05:36:26;;;;;;;17.08;9.95;;;;;;;3.54;97.80;100500.78;5064781;28;20119;-79
2024/03/21 05:38:52;;;;;;;14.73;8.02;;;;;;;3.85;90.58;100494.06;5066800;28;20107;-79
2024/03/21 05:41:17;;;;;;;14.13;7.82;;;;;;;4.11;90.37;100475.44;5066236;28;20059;-79
2024/03/21 05:43:43;;;;;;;15.30;8.20;;;;;;;4.43;88.05;100504.44;5066785;28;20024;-80
2024/03/21 05:46:09;;;;;;;15.45;8.80;;;;;;;4.66;85.13;100490.50;5065586;28;20897;-80
2024/03/21 05:48:35;;;;;;;16.45;8.80;;;;;;;4.47;86.16;100490.88;5066503;28;20108;-80
2024/03/21 05:51:01;;;;;;;17.92;8.63;;;;;;;4.86;84.53;100516.53;5066200;28;20044;-80
2024/03/21 05:53:27;;;;;;;22.88;10.38;;;;;;;4.88;86.78;100515.34;5066868;28;20413;-80
2024/03/21 05:56:00;;;;;;;27.55;14.05;;;;;;;5.18;83.80;100520.88;5065609;28;20032;-80
2024/03/21 05:58:27;;;;;;;22.35;11.52;;;;;;;5.22;86.67;100501.00;5066708;28;20124;-80
2024/03/21 06:01:28;;;;;;;16.77;9.55;;;;;;;5.70;84.03;100508.81;5064752;28;20035;-83
2024/03/21 06:03:49;;;;;;;16.15;9.65;;;;;;;5.90;84.38;100515.28;5067123;28;20098;-82
2024/03/21 06:06:15;;;;;;;15.20;8.60;;;;;;;5.59;85.66;100487.06;5067536;28;20029;-83
2024/03/21 06:08:41;;;;;;;15.95;8.38;;;;;;;5.94;83.00;100500.69;5066515;28;20060;-80
2024/03/21 06:11:07;;;;;;;13.27;7.65;;;;;;;6.13;79.96;100477.41;5066509;28;20060;-80
2024/03/21 06:13:33;;;;;;;14.03;7.63;;;;;;;6.20;81.22;100496.88;5065317;28;20032;-80
2024/03/21 06:15:59;;;;;;;13.57;8.55;;;;;;;6.28;83.81;100482.75;5065875;28;20089;-80
2024/03/21 06:18:24;;;;;;;12.90;7.80;;;;;;;6.71;80.21;100497.03;5065055;28;20515;-81
2024/03/21 06:20:49;;;;;;;14.32;8.23;;;;;;;6.75;79.65;100490.34;5063531;28;20035;-80
2024/03/21 06:23:15;;;;;;;14.20;7.95;;;;;;;6.91;77.30;100499.13;5064877;28;20040;-80
2024/03/21 06:25:42;;;;;;;14.98;9.25;;;;;;;6.98;75.62;100492.06;5064928;28;20468;-81
2024/03/21 06:28:07;;;;;;;12.73;7.97;;;;;;;7.01;73.95;100499.69;5066412;28;20131;-81
2024/03/21 06:30:33;;;;;;;13.43;7.95;;;;;;;7.18;75.63;100503.75;5064862;28;20135;-80
2024/03/21 06:32:59;;;;;;;15.15;8.23;;;;;;;6.95;75.45;100471.25;5066731;28;20447;-81
2024/03/21 06:35:26;;;;;;;13.18;8.52;;;;;;;7.07;75.52;100477.72;5064669;28;20393;-80
2024/03/21 06:37:55;;;;;;;13.30;8.25;;;;;;;7.26;75.85;100483.44;5066561;28;20039;-80
2024/03/21 06:40:22;;;;;;;15.05;8.10;;;;;;;7.48;74.48;100482.47;5046136;28;20036;-81
2024/03/21 06:42:48;;;;;;;11.68;7.72;;;;;;;7.49;76.37;100484.09;5064004;28;20033;-80
2024/03/21 06:45:14;;;;;;;15.40;8.07;;;;;;;7.32;81.11;100445.56;5065952;28;20382;-80
2024/03/21 06:47:43;;;;;;;15.20;7.75;;;;;;;7.65;81.77;100505.09;5066193;28;20044;-80
2024/03/21 06:50:16;;;;;;;12.98;7.88;;;;;;;7.79;83.00;100510.53;5064497;28;20016;-81
2024/03/21 06:52:45;;;;;;;14.82;8.30;;;;;;;7.65;82.08;100489.16;5062802;28;20081;-81
2024/03/21 06:55:14;;;;;;;15.82;9.38;;;;;;;7.90;85.48;100502.06;5064365;28;20017;-80
2024/03/21 06:57:41;;;;;;;13.63;8.68;;;;;;;7.76;83.33;100441.88;5066005;28;20024;-81
2024/03/21 07:00:11;;;;;;;16.50;9.27;;;;;;;8.29;76.11;100481.31;5064170;28;20032;-79
2024/03/21 07:02:37;;;;;;;12.95;8.27;;;;;;;8.19;74.17;100473.69;5065006;28;20021;-80
2024/03/21 07:05:03;;;;;;;15.45;8.88;;;;;;;8.22;72.33;100487.41;5065579;28;20032;-80
2024/03/21 07:07:28;;;;;;;15.88;8.73;;;;;;;8.26;73.33;100477.22;5064763;28;20421;-81
2024/03/21 07:09:54;;;;;;;13.80;7.53;;;;;;;8.07;75.72;100453.97;5065698;28;20017;-81
2024/03/21 07:12:19;;;;;;;14.75;8.50;;;;;;;8.67;75.23;100503.06;5065682;28;20024;-81
2024/03/21 07:14:45;;;;;;;14.70;8.27;;;;;;;8.42;76.78;100482.28;5065799;28;20181;-81
2024/03/21 07:17:10;;;;;;;14.60;8.27;;;;;;;8.34;78.31;100455.00;5065524;28;20441;-81
2024/03/21 07:19:35;;;;;;;15.98;9.07;;;;;;;8.75;84.80;100479.00;5065663;28;20037;-80
2024/03/21 07:22:03;;;;;;;14.90;8.20;;;;;;;9.11;80.06;100498.38;5059090;28;20115;-79
2024/03/21 07:24:29;;;;;;;15.57;8.93;;;;;;;9.31;78.26;100487.81;5059823;28;20040;-81
2024/03/21 07:26:54;;;;;;;14.40;8.88;;;;;;;9.57;74.55;100471.91;5061655;28;20037;-81
2024/03/21 07:29:20;;;;;;;16.67;9.50;;;;;;;9.58;74.63;100462.06;5069214;28;20048;-79
2024/03/21 07:31:45;;;;;;;14.38;8.85;;;;;;;10.24;71.50;100467.44;5063125;28;20032;-79
2024/03/21 07:34:12;;;;;;;12.68;7.93;;;;;;;10.22;68.79;100447.34;5089181;28;20024;-79
2024/03/21 07:36:37;;;;;;;13.43;8.02;;;;;;;10.55;66.23;100449.97;5088616;28;20054;-79
2024/03/21 07:39:04;;;;;;;12.82;7.95;;;;;;;10.96;65.12;100478.16;5088057;28;20516;-79
2024/03/21 07:41:30;;;;;;;11.18;6.13;;;;;;;11.04;63.75;100458.41;5088560;28;20059;-80
2024/03/21 07:43:56;;;;;;;10.63;5.85;;;;;;;11.31;59.71;100460.97;5083794;28;20039;-79
2024/03/21 07:46:22;;;;;;;10.45;6.25;;;;;;;11.46;57.43;100467.66;5088652;28;20036;-79
2024/03/21 07:48:47;;;;;;;9.68;5.75;;;;;;;11.38;56.71;100448.38;5071585;28;20032;-80
2024/03/21 07:51:13;;;;;;;10.77;6.32;;;;;;;11.60;57.05;100457.69;5089841;28;20035;-80
2024/03/21 07:53:38;;;;;;;12.23;5.53;;;;;;;11.68;54.90;100461.94;5089836;28;20115;-81
2024/03/21 07:56:04;;;;;;;9.90;5.72;;;;;;;11.65;53.61;100431.16;5070499;28;20409;-79
2024/03/21 07:58:29;;;;;;;10.95;6.32;;;;;;;11.89;52.96;100468.84;5089602;28;20106;-79
2024/03/21 08:00:55;;;;;;;10.55;5.60;;;;;;;12.04;53.38;100466.66;5089433;28;20084;-80
2024/03/21 08:03:20;;;;;;;11.77;6.07;;;;;;;12.14;53.28;100454.66;5071329;28;20543;-82
2024/03/21 08:05:45;;;;;;;9.23;5.88;;;;;;;12.44;52.89;100454.75;5088563;28;20545;-82
2024/03/21 08:08:11;;;;;;;13.07;6.35;;;;;;;12.49;53.00;100475.50;5085348;28;20039;-80
2024/03/21 08:10:37;;;;;;;11.30;6.50;;;;;;;12.01;52.42;100445.72;5081037;28;20493;-81
2024/03/21 08:13:02;;;;;;;10.43;5.78;;;;;;;12.12;52.27;100428.13;5088888;28;20108;-81
2024/03/21 08:15:28;;;;;;;8.38;5.30;;;;;;;12.46;49.63;100469.56;5070455;28;20061;-81
2024/03/21 08:17:53;;;;;;;9.68;5.00;;;;;;;12.48;49.48;100460.47;5088579;28;20032;-82
2024/03/21 08:20:19;;;;;;;10.32;5.47;;;;;;;12.66;48.63;100463.16;5070614;28;20032;-81
2024/03/21 08:22:45;;;;;;;8.95;5.13;;;;;;;12.80;50.46;100429.84;5088313;28;20036;-82
2024/03/21 08:25:10;;;;;;;8.48;4.78;;;;;;;13.11;49.03;100460.16;5068662;28;20042;-81
2024/03/21 08:27:37;;;;;;;9.52;4.88;;;;;;;13.34;47.51;100431.88;5066295;28;20056;-81
2024/03/21 08:30:03;;;;;;;7.93;5.53;;;;;;;13.39;46.38;100456.13;5070064;28;20044;-80
2024/03/21 08:32:30;;;;;;;9.45;4.97;;;;;;;13.45;46.18;100455.22;5088106;28;20024;-81
2024/03/21 08:34:55;;;;;;;10.07;5.15;;;;;;;13.34;45.98;100450.63;5069634;28;20507;-80
2024/03/21 08:37:20;;;;;;;11.95;5.47;;;;;;;13.46;47.08;100433.56;5086989;28;20028;-80
2024/03/21 08:39:47;;;;;;;9.30;5.13;;;;;;;14.01;47.23;100442.38;5087985;28;20110;-79
2024/03/21 08:42:12;;;;;;;7.43;4.70;;;;;;;13.95;46.35;100419.97;5088319;28;20055;-80
2024/03/21 08:44:37;;;;;;;10.60;4.25;;;;;;;14.06;45.74;100429.09;5088429;28;20131;-80
2024/03/21 08:47:03;;;;;;;7.95;4.32;;;;;;;13.80;43.46;100425.00;5069784;28;20123;-80
2024/03/21 08:49:28;;;;;;;8.82;4.45;;;;;;;13.93;43.52;100419.41;5069737;28;20489;-81
2024/03/21 08:51:54;;;;;;;10.25;4.50;;;;;;;13.91;45.35;100413.44;5087889;28;20513;-80
2024/03/21 08:54:24;;;;;;;7.32;4.28;;;;;;;14.27;45.81;100436.53;5088202;28;20035;-81
2024/03/21 08:56:51;;;;;;;9.48;4.50;;;;;;;14.44;44.28;100436.66;5087849;28;20511;-80
2024/03/21 08:59:16;;;;;;;8.60;4.32;;;;;;;14.85;46.34;100416.06;5069897;28;20033;-81
2024/03/21 09:01:42;;;;;;;8.52;4.10;;;;;;;14.88;45.72;100427.38;5087904;28;20112;-80
2024/03/21 09:04:07;;;;;;;7.78;3.60;;;;;;;15.03;40.61;100412.38;5085485;28;20032;-79
2024/03/21 09:06:32;;;;;;;6.35;3.70;;;;;;;14.99;41.66;100384.34;5087421;28;20028;-80
2024/03/21 09:08:58;;;;;;;10.55;4.20;;;;;;;15.37;42.63;100423.19;5071314;28;20029;-81
2024/03/21 09:11:23;;;;;;;7.05;4.18;;;;;;;15.43;41.14;100418.72;5069967;28;20028;-78
2024/03/21 09:13:49;;;;;;;8.27;4.45;;;;;;;15.34;42.44;100398.69;5087722;28;20046;-79
2024/03/21 09:16:14;;;;;;;7.45;3.88;;;;;;;15.00;41.58;100390.56;5087123;28;20024;-80
2024/03/21 09:18:43;;;;;;;7.90;4.18;;;;;;;15.46;43.00;100394.03;5087430;28;20112;-81
2024/03/21 09:21:12;;;;;;;7.63;3.58;;;;;;;15.44;40.05;100396.16;5069185;28;20032;-81
2024/03/21 09:23:40;;;;;;;8.55;3.45;;;;;;;15.38;39.85;100391.75;5068966;28;20028;-81
2024/03/21 09:26:06;;;;;;;8.05;4.03;;;;;;;15.83;38.86;100401.66;5068961;28;20110;-80
2024/03/21 09:28:31;;;;;;;7.38;3.92;;;;;;;15.71;39.72;100407.09;5082097;28;20394;-80
2024/03/21 09:30:57;;;;;;;7.32;3.85;;;;;;;15.74;40.65;100401.25;5080323;28;20524;-81
2024/03/21 09:33:22;;;;;;;8.07;3.80;;;;;;;15.81;39.62;100387.66;5061289;28;20042;-81
2024/03/21 09:36:03;;;;;;;7.07;3.90;;;;;;;16.07;39.52;100386.97;5087118;28;20032;-80
2024/03/21 09:38:29;;;;;;;9.43;3.58;;;;;;;16.06;39.73;100363.81;5081854;28;20048;-82
2024/03/21 09:40:56;;;;;;;5.50;3.13;;;;;;;16.00;39.64;100375.56;5068573;28;20024;-80
2024/03/21 09:43:22;;;;;;;6.18;3.40;;;;;;;16.17;37.63;100350.50;5087093;28;20089;-81
2024/03/21 09:45:51;;;;;;;7.82;3.58;;;;;;;16.54;37.38;100336.44;5086903;28;20040;-80
2024/03/21 09:48:17;;;;;;;6.63;3.30;;;;;;;16.95;38.51;100364.63;5068927;28;20046;-82
2024/03/21 09:50:46;;;;;;;6.63;3.38;;;;;;;17.36;37.69;100367.72;5087027;28;20036;-81
2024/03/21 09:53:15;;;;;;;6.05;2.70;;;;;;;17.56;35.35;100372.47;5068706;28;20039;-80
2024/03/21 09:55:45;;;;;;;7.85;3.05;;;;;;;17.35;34.86;100374.19;5066877;28;20473;-79
2024/03/21 09:58:16;;;;;;;7.60;3.83;;;;;;;16.94;36.19;100311.84;5086641;28;20093;-81
2024/03/21 10:00:42;;;;;;;8.65;3.88;;;;;;;17.05;36.74;100318.13;5069003;28;20107;-81
2024/03/21 10:03:13;;;;;;;6.15;3.25;;;;;;;17.52;35.65;100349.78;5068557;28;20028;-81
2024/03/21 10:05:47;;;;;;;7.25;4.13;;;;;;;17.14;35.44;100308.53;5087082;28;20028;-79
2024/03/21 10:08:16;;;;;;;5.63;3.35;;;;;;;17.56;35.64;100326.63;5069075;28;20112;-81
2024/03/21 10:10:43;;;;;;;6.32;2.88;;;;;;;16.93;35.14;100326.38;5068776;28;20028;-79
2024/03/21 10:13:09;;;;;;;6.75;3.20;;;;;;;16.64;36.31;100282.69;5068740;28;20469;-80
2024/03/21 10:15:36;;;;;;;7.00;4.00;;;;;;;17.10;36.38;100326.28;5086571;28;20099;-79
2024/03/21 10:18:03;;;;;;;4.80;2.90;;;;;;;16.33;34.21;100306.59;5068633;28;20046;-79
2024/03/21 10:20:28;;;;;;;8.98;4.30;;;;;;;16.27;36.39;100302.19;5086920;28;20035;-80
2024/03/21 10:22:54;;;;;;;6.50;3.15;;;;;;;16.35;39.56;100298.25;5068956;28;20028;-80
2024/03/21 10:25:19;;;;;;;6.38;3.10;;;;;;;16.49;38.02;100288.75;5087202;28;20024;-81
2024/03/21 10:27:46;;;;;;;5.72;2.80;;;;;;;16.57;36.70;100284.75;5068843;28;20378;-79
2024/03/21 10:30:18;;;;;;;9.68;2.67;;;;;;;16.48;33.43;100308.63;5068726;28;20090;-81
2024/03/21 10:32:45;;;;;;;6.95;2.90;;;;;;;16.82;33.88;100297.72;5068915;28;20040;-79
2024/03/21 10:35:16;;;;;;;5.13;2.38;;;;;;;17.06;33.04;100287.41;5068893;28;20039;-80
2024/03/21 10:37:43;;;;;;;4.78;2.47;;;;;;;17.13;31.96;100296.09;5086266;28;20024;-78
2024/03/21 10:40:13;;;;;;;6.82;2.53;;;;;;;17.53;33.17;100277.78;5086849;28;20092;-78
2024/03/21 10:42:53;;;;;;;6.63;3.22;;;;;;;17.73;33.52;100277.91;5086598;28;20016;-79
2024/03/21 10:45:19;;;;;;;7.47;2.95;;;;;;;17.68;31.62;100257.13;5069086;28;20028;-81
2024/03/21 10:47:52;;;;;;;6.07;2.88;;;;;;;17.94;35.17;100251.06;5068686;28;20020;-79
2024/03/21 10:50:24;;;;;;;5.85;2.60;;;;;;;18.04;32.13;100256.50;5088996;28;20031;-80
2024/03/21 10:52:57;;;;;;;6.53;2.70;;;;;;;18.44;32.33;100268.53;5091974;28;20032;-81
2024/03/21 10:55:24;;;;;;;7.63;3.22;;;;;;;18.12;31.32;100263.31;5090524;28;20028;-80
2024/03/21 10:57:59;;;;;;;5.00;2.75;;;;;;;17.34;32.38;100218.09;5095600;28;20032;-81
2024/03/21 11:00:25;;;;;;;6.35;2.85;;;;;;;17.71;35.09;100245.00;5098246;28;20024;-82
2024/03/21 11:02:54;;;;;;;3.78;2.38;;;;;;;17.55;31.16;100233.34;5078911;28;20035;-79
2024/03/21 11:05:25;;;;;;;4.15;2.45;;;;;;;17.18;32.58;100242.28;5090382;28;20027;-79
2024/03/21 11:07:51;;;;;;;4.75;2.45;;;;;;;16.63;32.99;100197.59;5074951;28;20024;-80
2024/03/21 11:10:18;;;;;;;5.45;2.20;;;;;;;17.20;31.72;100218.56;5075658;28;20523;-81
2024/03/21 11:12:48;;;;;;;4.53;2.37;;;;;;;18.28;32.18;100233.38;5075800;28;20024;-82
2024/03/21 11:15:13;;;;;;;4.18;2.30;;;;;;;18.24;30.76;100223.38;5075862;28;20035;-82
2024/03/21 11:17:39;;;;;;;5.03;2.40;;;;;;;18.45;30.95;100206.16;5073444;28;20420;-81
2024/03/21 11:20:10;;;;;;;6.05;2.10;;;;;;;19.17;30.57;100205.41;5077132;28;20088;-80
2024/03/21 11:22:38;;;;;;;3.28;1.88;;;;;;;19.01;28.50;100218.13;5088219;28;20020;-80
2024/03/21 11:25:03;;;;;;;3.45;1.95;;;;;;;19.10;28.57;100211.06;5094118;28;20115;-81